Time;durP1;ratioP1;P1;durP2;ratioP2;P2;SDS_P1;SDS_P2;PMS_P1;PMS_P2;Temp;Humidity;BMP_temperature;BMP_pressure;BME280_temperature;BME280_humidity;BME280_pressure;Samples;Min_cycle;Max_cycle;Signal;HPM_P1;HPM_P2
2022/04/10 00:00:36;;;;;;;12.15;5.53;;;;;;;17.22;51.84;98411.19;5050941;28;20043;-47
2022/04/10 00:03:02;;;;;;;14.20;5.55;;;;;;;17.16;51.31;98410.44;5050782;28;20075;-48
2022/04/10 00:05:27;;;;;;;11.80;5.78;;;;;;;16.97;51.19;98404.91;5050397;28;20036;-47
2022/04/10 00:07:53;;;;;;;15.32;5.53;;;;;;;17.03;51.23;98399.50;5050587;28;20065;-47
2022/04/10 00:10:18;;;;;;;12.32;6.00;;;;;;;16.97;51.46;98407.59;5050297;28;20389;-48
2022/04/10 00:12:44;;;;;;;10.95;5.88;;;;;;;17.07;51.22;98411.31;5050858;28;20112;-48
2022/04/10 00:15:11;;;;;;;11.80;5.55;;;;;;;17.04;50.50;98414.53;5050430;28;20028;-48
2022/04/10 00:17:36;;;;;;;10.35;6.25;;;;;;;16.97;51.14;98426.41;5050540;28;20107;-49
2022/04/10 00:20:03;;;;;;;15.20;6.05;;;;;;;16.99;50.30;98421.56;5050253;28;20076;-50
2022/04/10 00:22:28;;;;;;;14.27;6.07;;;;;;;17.04;50.31;98422.59;5049358;28;20461;-49
2022/04/10 00:24:54;;;;;;;13.30;6.80;;;;;;;16.93;50.08;98424.56;5050526;28;20102;-46
2022/04/10 00:27:19;;;;;;;13.98;6.20;;;;;;;16.73;50.99;98426.22;5050381;28;20373;-50
2022/04/10 00:29:46;;;;;;;13.88;5.93;;;;;;;16.66;51.82;98430.28;5053390;28;20496;-48
2022/04/10 00:32:11;;;;;;;14.52;5.45;;;;;;;15.98;55.42;98418.94;5054282;28;20021;-49
2022/04/10 00:34:37;;;;;;;9.98;5.03;;;;;;;15.60;56.62;98418.41;5053813;28;20480;-48
2022/04/10 00:37:02;;;;;;;11.70;5.55;;;;;;;15.94;55.70;98411.72;5054019;28;20043;-48
2022/04/10 00:39:28;;;;;;;11.90;5.65;;;;;;;16.09;55.28;98413.53;5054371;28;20111;-48
2022/04/10 00:41:53;;;;;;;14.27;5.05;;;;;;;15.91;55.86;98420.28;5053672;28;20029;-48
2022/04/10 00:44:20;;;;;;;12.88;5.15;;;;;;;16.09;55.04;98419.72;5053762;28;20451;-48
2022/04/10 00:46:45;;;;;;;13.13;5.22;;;;;;;16.02;55.50;98421.88;5053935;28;20028;-51
2022/04/10 00:49:11;;;;;;;9.73;5.30;;;;;;;15.99;55.49;98425.91;5053992;28;20106;-49
2022/04/10 00:51:50;;;;;;;11.40;5.28;;;;;;;15.80;56.17;98425.69;5053530;28;20032;-49
2022/04/10 00:54:26;;;;;;;9.82;5.25;;;;;;;15.69;56.67;98433.94;5053749;28;20032;-49
2022/04/10 00:56:53;;;;;;;11.95;5.03;;;;;;;15.34;58.23;98427.50;5054136;28;20040;-51
2022/04/10 00:59:18;;;;;;;9.70;4.88;;;;;;;15.62;56.47;98431.53;5053935;28;20559;-48
2022/04/10 01:01:45;;;;;;;10.50;5.22;;;;;;;15.69;56.39;98433.94;5053599;28;20112;-51
2022/04/10 01:04:16;;;;;;;13.38;5.40;;;;;;;15.57;57.07;98440.41;5053703;28;20461;-48
2022/04/10 01:06:43;;;;;;;10.35;5.10;;;;;;;15.86;56.31;98439.06;5053279;28;20401;-46
2022/04/10 01:09:09;;;;;;;12.93;5.03;;;;;;;15.67;56.54;98431.56;5053727;28;20029;-49
2022/04/10 01:11:35;;;;;;;12.10;5.05;;;;;;;15.90;56.01;98432.91;5053341;28;20503;-48
2022/04/10 01:14:02;;;;;;;11.02;4.78;;;;;;;15.54;56.92;98421.38;5053287;28;20021;-49
2022/04/10 01:16:28;;;;;;;10.57;4.80;;;;;;;15.76;56.84;98431.84;5053490;28;20021;-48
2022/04/10 01:18:55;;;;;;;10.32;4.85;;;;;;;15.78;56.94;98435.03;5052994;28;20087;-49
2022/04/10 01:21:25;;;;;;;10.88;4.50;;;;;;;15.80;56.26;98438.25;5053428;28;20021;-49
2022/04/10 01:23:52;;;;;;;11.45;4.47;;;;;;;15.96;55.98;98441.75;5052762;28;20469;-48
2022/04/10 01:26:18;;;;;;;12.98;4.90;;;;;;;16.03;55.54;98432.34;5052433;28;20025;-49
2022/04/10 01:29:10;;;;;;;8.75;4.47;;;;;;;16.31;55.32;98438.19;5053401;28;20071;-48
2022/04/10 01:31:40;;;;;;;10.38;4.22;;;;;;;16.31;55.03;98430.13;5053057;28;20025;-48
2022/04/10 01:34:08;;;;;;;10.38;4.43;;;;;;;15.91;56.18;98431.81;5052954;28;20036;-48
2022/04/10 01:36:35;;;;;;;9.25;4.28;;;;;;;15.64;57.05;98429.41;5053183;28;20036;-49
2022/04/10 01:39:03;;;;;;;11.32;4.70;;;;;;;15.70;57.63;98420.28;5052890;28;20457;-48
2022/04/10 01:41:30;;;;;;;8.85;4.35;;;;;;;15.61;57.69;98436.09;5052331;28;20404;-50
2022/04/10 01:43:56;;;;;;;8.68;3.83;;;;;;;15.90;56.55;98432.09;5052972;28;20036;-51
2022/04/10 01:46:24;;;;;;;7.97;3.88;;;;;;;15.77;57.61;98428.88;5052607;28;20101;-51
2022/04/10 01:48:49;;;;;;;10.15;4.18;;;;;;;15.61;57.58;98424.56;5052986;28;20156;-50
2022/04/10 01:51:15;;;;;;;14.73;4.45;;;;;;;15.78;56.68;98421.63;5052969;28;20150;-50
2022/04/10 01:53:41;;;;;;;11.45;4.65;;;;;;;15.74;57.71;98420.56;5052933;28;20044;-50
2022/04/10 01:56:08;;;;;;;14.77;5.28;;;;;;;15.82;57.04;98417.34;5052215;28;20049;-53
2022/04/10 01:58:39;;;;;;;10.70;4.68;;;;;;;15.19;59.07;98418.38;5052837;28;20473;-49
2022/04/10 02:01:06;;;;;;;7.25;4.28;;;;;;;15.49;58.06;98410.63;5052753;28;20036;-48
2022/04/10 02:03:32;;;;;;;14.27;4.70;;;;;;;15.68;57.48;98411.69;5052590;28;20023;-50
2022/04/10 02:05:59;;;;;;;11.13;4.53;;;;;;;15.41;57.98;98407.41;5051842;28;20380;-48
2022/04/10 02:08:24;;;;;;;13.55;4.75;;;;;;;15.48;57.91;98407.16;5052228;28;20550;-47
2022/04/10 02:10:50;;;;;;;12.77;4.15;;;;;;;15.40;58.23;98399.63;5052438;28;20025;-48
2022/04/10 02:13:16;;;;;;;14.82;4.40;;;;;;;15.27;58.73;98409.03;5052290;28;20083;-48
2022/04/10 02:15:41;;;;;;;13.55;4.50;;;;;;;15.31;58.64;98410.09;5052412;28;20032;-48
2022/04/10 02:18:07;;;;;;;6.00;3.90;;;;;;;15.08;59.16;98413.25;5051991;28;20325;-47
2022/04/10 02:20:32;;;;;;;11.52;4.18;;;;;;;14.97;60.30;98415.91;5051964;28;20159;-48
2022/04/10 02:22:58;;;;;;;9.75;4.38;;;;;;;14.90;60.39;98417.25;5051821;28;20021;-47
2022/04/10 02:25:24;;;;;;;7.53;4.13;;;;;;;14.93;60.20;98406.81;5052108;28;20025;-48
2022/04/10 02:27:49;;;;;;;9.23;4.15;;;;;;;15.17;59.54;98400.94;5051824;28;20025;-48
2022/04/10 02:30:16;;;;;;;12.30;4.40;;;;;;;15.10;59.60;98393.19;5052381;28;20054;-48
2022/04/10 02:32:42;;;;;;;11.95;4.10;;;;;;;15.27;59.36;98400.16;5051966;28;20029;-48
2022/04/10 02:35:11;;;;;;;6.13;4.00;;;;;;;15.13;59.24;98392.63;5051544;28;20087;-47
2022/04/10 02:37:37;;;;;;;11.48;3.95;;;;;;;15.21;59.27;98394.81;5051918;28;20017;-48
2022/04/10 02:40:04;;;;;;;9.80;3.85;;;;;;;15.51;58.02;98401.25;5051713;28;20400;-48
2022/04/10 02:42:33;;;;;;;10.32;4.35;;;;;;;15.25;58.94;98401.25;5052218;28;20024;-48
2022/04/10 02:44:59;;;;;;;7.93;4.07;;;;;;;14.98;59.40;98403.31;5051430;28;20021;-48
2022/04/10 02:47:24;;;;;;;9.63;4.05;;;;;;;14.93;60.34;98406.00;5051542;28;20044;-48
2022/04/10 02:49:50;;;;;;;8.20;3.70;;;;;;;14.63;60.91;98394.94;5051091;28;20059;-48
2022/04/10 02:52:15;;;;;;;10.50;4.40;;;;;;;14.80;60.46;98400.06;5051438;28;20105;-48
2022/04/10 02:54:41;;;;;;;10.10;3.80;;;;;;;14.10;62.83;98401.34;5051401;28;20032;-48
2022/04/10 02:57:06;;;;;;;10.55;3.80;;;;;;;14.55;61.72;98398.09;5051770;28;20025;-48
2022/04/10 02:59:32;;;;;;;11.60;3.97;;;;;;;14.85;60.46;98402.78;5051224;28;20391;-50
2022/04/10 03:01:57;;;;;;;10.27;3.90;;;;;;;14.41;61.73;98389.75;5051424;28;20025;-51
2022/04/10 03:04:23;;;;;;;10.80;3.60;;;;;;;14.22;62.37;98383.22;5051489;28;20029;-49
2022/04/10 03:06:48;;;;;;;9.93;3.75;;;;;;;14.04;63.05;98398.63;5051220;28;20025;-48
2022/04/10 03:09:13;;;;;;;9.88;3.63;;;;;;;14.34;62.45;98388.38;5051473;28;20229;-48
2022/04/10 03:11:39;;;;;;;13.23;3.95;;;;;;;14.63;61.17;98388.78;5050750;28;20025;-51
2022/04/10 03:14:04;;;;;;;10.38;3.90;;;;;;;14.33;61.83;98400.94;5051451;28;20032;-51
2022/04/10 03:16:30;;;;;;;8.70;3.72;;;;;;;14.35;61.97;98401.47;5050928;28;20021;-48
2022/04/10 03:18:55;;;;;;;9.85;4.00;;;;;;;14.05;63.17;98404.78;5051137;28;20147;-48
2022/04/10 03:21:21;;;;;;;10.05;3.65;;;;;;;13.65;64.22;98396.25;5050568;28;20021;-49
2022/04/10 03:23:47;;;;;;;12.65;4.40;;;;;;;14.14;63.14;98394.41;5051212;28;20473;-49
2022/04/10 03:26:12;;;;;;;9.98;3.88;;;;;;;14.48;61.85;98395.63;5050728;28;20035;-49
2022/04/10 03:28:37;;;;;;;10.40;4.03;;;;;;;14.55;61.50;98387.38;5050781;28;20678;-48
2022/04/10 03:31:03;;;;;;;10.30;3.90;;;;;;;14.52;61.53;98393.25;5050590;28;20413;-51
2022/04/10 03:33:28;;;;;;;10.23;4.10;;;;;;;14.25;62.44;98383.50;5050963;28;20048;-51
2022/04/10 03:35:54;;;;;;;11.32;4.00;;;;;;;14.32;62.76;98377.94;5050744;28;20492;-51
2022/04/10 03:38:20;;;;;;;9.13;4.10;;;;;;;14.40;62.23;98390.00;5051039;28;20398;-51
2022/04/10 03:40:46;;;;;;;8.55;3.95;;;;;;;14.66;61.42;98382.91;5050904;28;20024;-51
2022/04/10 03:43:12;;;;;;;10.48;4.30;;;;;;;14.64;60.59;98387.69;5050461;28;20020;-50
2022/04/10 03:45:38;;;;;;;12.77;4.20;;;;;;;14.59;60.90;98398.41;5050571;28;20458;-51
2022/04/10 03:48:07;;;;;;;10.27;4.53;;;;;;;14.89;59.92;98404.91;5050662;28;20047;-48
2022/04/10 03:50:33;;;;;;;12.87;4.30;;;;;;;14.81;60.51;98401.69;5050890;28;20039;-52
2022/04/10 03:53:03;;;;;;;11.98;4.60;;;;;;;15.02;59.47;98405.22;5050363;28;20021;-49
2022/04/10 03:55:29;;;;;;;12.38;4.32;;;;;;;14.88;60.03;98403.31;5050631;28;20456;-49
2022/04/10 03:57:54;;;;;;;11.63;4.07;;;;;;;15.03;59.83;98409.50;5050761;28;20525;-50
2022/04/10 04:00:20;;;;;;;13.70;4.90;;;;;;;15.04;59.48;98405.75;5050524;28;20389;-49
2022/04/10 04:02:46;;;;;;;9.25;4.20;;;;;;;15.21;58.97;98410.88;5050429;28;20021;-49
2022/04/10 04:05:12;;;;;;;11.68;4.47;;;;;;;15.27;58.78;98419.75;5054125;28;20020;-49
2022/04/10 04:07:38;;;;;;;13.13;4.22;;;;;;;15.06;59.05;98426.94;5054361;28;20114;-49
2022/04/10 04:10:05;;;;;;;14.02;4.25;;;;;;;15.22;58.87;98436.59;5054811;28;20112;-49
2022/04/10 04:12:31;;;;;;;10.00;4.13;;;;;;;15.44;58.10;98420.28;5054452;28;20025;-49
2022/04/10 04:14:57;;;;;;;13.63;4.10;;;;;;;15.53;57.90;98425.09;5053793;28;20032;-50
2022/04/10 04:17:22;;;;;;;11.07;4.07;;;;;;;15.59;57.73;98426.69;5054292;28;20086;-50
2022/04/10 04:19:51;;;;;;;12.32;3.88;;;;;;;15.56;57.76;98438.78;5054929;28;20029;-50
2022/04/10 04:22:17;;;;;;;7.93;4.07;;;;;;;15.54;57.88;98453.53;5054087;28;20024;-51
2022/04/10 04:24:43;;;;;;;12.63;4.35;;;;;;;15.73;57.12;98464.53;5053939;28;20202;-49
2022/04/10 04:27:08;;;;;;;10.40;3.80;;;;;;;15.80;57.22;98473.94;5054574;28;20433;-52
2022/04/10 04:29:34;;;;;;;13.30;4.40;;;;;;;15.89;56.87;98465.34;5054382;28;20430;-53
2022/04/10 04:31:59;;;;;;;9.88;3.72;;;;;;;16.00;56.74;98464.28;5054198;28;20393;-50
2022/04/10 04:34:25;;;;;;;10.30;4.38;;;;;;;15.99;56.77;98459.97;5053974;28;20029;-51
2022/04/10 04:36:50;;;;;;;9.63;3.70;;;;;;;16.08;56.04;98465.63;5053499;28;20119;-49
2022/04/10 04:39:17;;;;;;;8.65;3.90;;;;;;;16.12;55.95;98464.00;5054062;28;20025;-50
2022/04/10 04:41:42;;;;;;;11.90;4.05;;;;;;;16.38;55.55;98468.22;5054347;28;20021;-51
2022/04/10 04:44:08;;;;;;;10.23;4.20;;;;;;;16.36;54.75;98469.59;5053881;28;20520;-51
2022/04/10 04:46:33;;;;;;;12.35;3.92;;;;;;;16.29;55.72;98469.06;5053734;28;20031;-51
2022/04/10 04:48:59;;;;;;;11.73;3.63;;;;;;;15.74;56.91;98474.22;5054210;28;20533;-52
2022/04/10 04:51:24;;;;;;;10.15;4.28;;;;;;;15.92;56.62;98473.69;5053913;28;20021;-51
2022/04/10 04:53:50;;;;;;;10.70;3.95;;;;;;;16.08;56.33;98477.16;5053866;28;20020;-52
2022/04/10 04:56:16;;;;;;;10.13;3.67;;;;;;;16.24;56.04;98475.25;5053460;28;20029;-50
2022/04/10 04:58:43;;;;;;;12.85;4.18;;;;;;;16.17;55.82;98464.00;5053653;28;20106;-49
2022/04/10 05:01:08;;;;;;;11.70;4.60;;;;;;;16.45;55.19;98475.19;5053791;28;20021;-49
2022/04/10 05:03:34;;;;;;;10.13;4.20;;;;;;;16.58;54.45;98464.69;5053687;28;20036;-49
2022/04/10 05:05:59;;;;;;;9.45;3.72;;;;;;;15.76;55.91;98413.88;5053761;28;20025;-52
2022/04/10 05:08:25;;;;;;;11.60;4.20;;;;;;;16.13;55.57;98454.88;5052981;28;20451;-49
2022/04/10 05:10:51;;;;;;;10.13;3.80;;;;;;;16.03;56.42;98467.22;5053493;28;20029;-52
2022/04/10 05:13:16;;;;;;;10.30;4.47;;;;;;;16.27;55.31;98469.34;5053385;28;20043;-52
2022/04/10 05:15:41;;;;;;;11.05;3.90;;;;;;;16.23;55.18;98462.91;5053146;28;20020;-52
2022/04/10 05:18:07;;;;;;;14.80;6.00;;;;;;;16.14;55.81;98459.16;5053064;28;20400;-49
2022/04/10 05:20:32;;;;;;;12.15;4.43;;;;;;;16.22;55.34;98467.47;5053162;28;20092;-49
2022/04/10 05:22:58;;;;;;;18.05;7.28;;;;;;;15.99;56.50;98474.22;5052796;28;20019;-50
2022/04/10 05:25:23;;;;;;;12.63;5.70;;;;;;;15.98;56.91;98467.22;5053013;28;20079;-49
2022/04/10 05:27:49;;;;;;;12.77;4.68;;;;;;;16.20;56.54;98483.03;5053312;28;20025;-50
2022/04/10 05:30:15;;;;;;;16.08;4.50;;;;;;;16.35;55.72;98484.06;5052866;28;20576;-48
2022/04/10 05:32:44;;;;;;;9.10;3.85;;;;;;;16.31;55.50;98483.03;5053210;28;20469;-49
2022/04/10 05:35:10;;;;;;;13.05;4.03;;;;;;;16.49;55.51;98485.13;5052619;28;20017;-48
2022/04/10 05:37:35;;;;;;;12.55;4.05;;;;;;;16.56;54.66;98482.16;5052943;28;20116;-49
2022/04/10 05:40:02;;;;;;;13.60;4.55;;;;;;;16.34;55.92;98487.84;5052427;28;20096;-48
2022/04/10 05:42:28;;;;;;;13.18;4.32;;;;;;;16.48;55.20;98480.03;5052907;28;20029;-48
2022/04/10 05:45:01;;;;;;;13.23;4.28;;;;;;;16.64;54.45;98478.91;5052677;28;20078;-48
2022/04/10 05:47:26;;;;;;;13.82;4.78;;;;;;;16.40;55.33;98479.50;5052820;28;20086;-48
2022/04/10 05:49:52;;;;;;;11.32;4.68;;;;;;;16.73;55.06;98481.81;5052491;28;20025;-49
2022/04/10 05:52:17;;;;;;;9.18;3.95;;;;;;;16.82;53.75;98485.59;5052291;28;20052;-48
2022/04/10 05:54:43;;;;;;;11.13;4.22;;;;;;;16.92;53.82;98480.16;5052460;28;20087;-48
2022/04/10 05:57:08;;;;;;;8.77;4.43;;;;;;;17.02;53.72;98470.44;5046135;28;20091;-49
2022/04/10 05:59:33;;;;;;;14.25;4.38;;;;;;;17.06;53.70;98480.38;5050717;28;20053;-51
2022/04/10 06:01:59;;;;;;;14.07;4.40;;;;;;;17.17;53.17;98479.25;5052178;28;20453;-49
2022/04/10 06:04:24;;;;;;;11.80;4.43;;;;;;;17.30;53.65;98479.69;5050839;28;20025;-48
2022/04/10 06:06:50;;;;;;;9.85;4.30;;;;;;;16.60;55.01;98475.97;5051091;28;20544;-50
2022/04/10 06:09:16;;;;;;;8.20;4.00;;;;;;;15.79;56.77;98466.16;5051298;28;20048;-49
2022/04/10 06:11:41;;;;;;;9.82;4.65;;;;;;;15.14;58.84;98474.63;5051182;28;20029;-50
2022/04/10 06:14:06;;;;;;;9.60;4.47;;;;;;;14.81;61.22;98475.84;5051430;28;20028;-50
2022/04/10 06:16:32;;;;;;;12.82;4.90;;;;;;;14.94;62.05;98472.69;5046361;28;20413;-52
2022/04/10 06:18:57;;;;;;;12.05;4.68;;;;;;;15.54;59.62;98473.09;5050353;28;20040;-50
2022/04/10 06:21:23;;;;;;;96.57;54.42;;;;;;;15.23;60.13;98475.75;5050937;28;20642;-50
2022/04/10 06:23:48;;;;;;;16.50;6.20;;;;;;;14.92;61.51;98474.03;5050577;28;20092;-51
2022/04/10 06:26:14;;;;;;;12.65;5.63;;;;;;;15.29;60.93;98470.38;5049804;28;20102;-49
2022/04/10 06:28:39;;;;;;;11.77;4.72;;;;;;;15.88;58.38;98463.75;5050652;28;20037;-51
2022/04/10 06:31:04;;;;;;;15.93;5.03;;;;;;;15.22;60.10;98457.22;5050570;28;20033;-51
2022/04/10 06:33:30;;;;;;;13.40;4.80;;;;;;;15.13;60.67;98456.94;5050229;28;20029;-52
2022/04/10 06:35:55;;;;;;;10.88;4.72;;;;;;;15.24;60.24;98461.25;5050498;28;20112;-49
2022/04/10 06:38:21;;;;;;;13.18;4.72;;;;;;;15.56;58.75;98460.22;5050456;28;20024;-49
2022/04/10 06:40:48;;;;;;;13.95;4.80;;;;;;;14.91;61.27;98454.47;5050169;28;20025;-48
2022/04/10 06:43:13;;;;;;;12.57;4.47;;;;;;;14.69;62.45;98459.22;5050336;28;20020;-52
2022/04/10 06:45:39;;;;;;;13.50;4.68;;;;;;;15.34;60.54;98468.50;5050035;28;20392;-50
2022/04/10 06:48:06;;;;;;;13.80;4.65;;;;;;;15.35;60.71;98469.31;5050572;28;20489;-48
2022/04/10 06:50:31;;;;;;;8.75;4.35;;;;;;;14.83;61.71;98450.44;5050324;28;20024;-50
2022/04/10 06:52:57;;;;;;;14.27;4.80;;;;;;;14.73;62.45;98471.81;5050356;28;20047;-49
2022/04/10 06:55:22;;;;;;;11.77;4.20;;;;;;;15.43;60.52;98458.06;5049676;28;20063;-50
2022/04/10 06:57:48;;;;;;;12.30;4.78;;;;;;;15.14;61.01;98465.81;5048190;28;20048;-49
2022/04/10 07:00:14;;;;;;;19.85;10.65;;;;;;;15.30;60.53;98466.63;5049417;28;20024;-50
2022/04/10 07:02:39;;;;;;;13.68;5.15;;;;;;;15.23;61.16;98472.22;5048965;28;20033;-50
2022/04/10 07:05:05;;;;;;;13.38;4.68;;;;;;;16.05;58.21;98458.91;5048671;28;20387;-51
2022/04/10 07:07:31;;;;;;;15.02;4.63;;;;;;;15.76;58.90;98459.47;5048840;28;20056;-48
2022/04/10 07:09:58;;;;;;;12.85;4.47;;;;;;;16.47;58.18;98460.44;5048902;28;20239;-48
2022/04/10 07:12:24;;;;;;;10.25;4.40;;;;;;;16.93;56.55;98456.81;5049272;28;20072;-50
2022/04/10 07:14:49;;;;;;;14.77;4.68;;;;;;;17.31;54.43;98457.13;5048703;28;20025;-50
2022/04/10 07:17:14;;;;;;;11.45;4.43;;;;;;;16.81;55.79;98465.13;5049019;28;20081;-49
2022/04/10 07:19:40;;;;;;;10.07;4.13;;;;;;;17.17;54.22;98454.22;5048833;28;20024;-50
2022/04/10 07:24:49;;;;;;;11.10;4.40;;;;;;;17.13;53.93;98445.91;5047856;28;20051;-49
2022/04/10 07:27:15;;;;;;;10.02;4.40;;;;;;;17.00;55.22;98455.41;5048736;28;20461;-50
2022/04/10 07:29:40;;;;;;;8.90;4.20;;;;;;;18.04;52.60;98459.00;5049078;28;20368;-50
2022/04/10 07:32:06;;;;;;;11.48;4.30;;;;;;;18.63;51.12;98462.41;5048854;28;20480;-49
2022/04/10 07:34:31;;;;;;;12.60;4.38;;;;;;;19.00;49.93;98471.72;5048781;28;20021;-50
2022/04/10 07:36:57;;;;;;;12.82;4.47;;;;;;;18.54;51.44;98464.97;5048611;28;20036;-48
2022/04/10 07:39:22;;;;;;;12.55;4.10;;;;;;;19.16;50.66;98475.00;5048298;28;20032;-48
2022/04/10 07:41:48;;;;;;;8.80;4.00;;;;;;;20.27;47.94;98470.03;5048807;28;20029;-48
2022/04/10 07:44:13;;;;;;;9.93;4.32;;;;;;;21.03;44.51;98470.44;5049012;28;20108;-50
2022/04/10 07:49:23;;;;;;;31.98;17.02;;;;;;;20.21;47.66;98471.22;5049417;28;20435;-50
2022/04/10 07:51:48;;;;;;;10.70;4.50;;;;;;;21.19;45.37;98473.63;5049976;28;20088;-51
2022/04/10 07:54:14;;;;;;;7.15;3.70;;;;;;;21.92;43.87;98473.56;5049613;28;20523;-48
2022/04/10 07:56:39;;;;;;;13.80;4.15;;;;;;;22.71;41.66;98461.19;5049465;28;20457;-50
2022/04/10 07:59:05;;;;;;;10.88;4.35;;;;;;;22.18;42.46;98456.66;5049189;28;20074;-48
2022/04/10 08:01:30;;;;;;;9.98;4.05;;;;;;;21.14;45.22;98465.63;5048857;28;20025;-49
2022/04/10 08:03:56;;;;;;;8.75;4.32;;;;;;;21.63;44.93;98465.91;5049069;28;20128;-48
2022/04/10 08:06:21;;;;;;;10.32;4.13;;;;;;;22.71;42.50;98473.97;5049368;28;20029;-49
2022/04/10 08:08:47;;;;;;;10.02;4.07;;;;;;;21.91;43.52;98471.16;5048663;28;20133;-48
2022/04/10 08:11:12;;;;;;;11.32;4.60;;;;;;;20.64;46.40;98482.59;5048909;28;20089;-51
2022/04/10 08:13:37;;;;;;;11.95;4.80;;;;;;;21.19;45.41;98480.91;5048977;28;20484;-49
2022/04/10 08:16:03;;;;;;;14.57;4.60;;;;;;;21.57;43.87;98473.34;5048741;28;20362;-52
2022/04/10 08:18:29;;;;;;;12.65;4.43;;;;;;;21.53;44.28;98493.19;5049097;28;20035;-51
2022/04/10 08:20:54;;;;;;;7.93;4.07;;;;;;;21.21;45.40;98506.59;5048760;28;20467;-51
2022/04/10 08:23:20;;;;;;;12.98;4.28;;;;;;;21.45;45.04;98522.56;5044374;28;20137;-52
2022/04/10 08:25:46;;;;;;;10.70;4.57;;;;;;;22.00;43.65;98539.75;5038312;28;20523;-49
2022/04/10 08:28:12;;;;;;;11.35;4.57;;;;;;;21.42;43.87;98542.13;5029605;28;20055;-36
2022/04/10 08:30:39;;;;;;;9.82;4.80;;;;;;;20.78;46.10;98517.72;5029237;28;20400;-37
2022/04/10 08:33:05;;;;;;;17.60;5.47;;;;;;;20.51;46.75;98524.69;5029819;28;20037;-37
2022/04/10 08:35:31;;;;;;;13.23;5.38;;;;;;;19.94;47.87;98520.56;5046106;28;20196;-37
2022/04/10 08:37:57;;;;;;;13.55;5.47;;;;;;;19.29;49.72;98528.22;5048611;28;20025;-50
2022/04/10 08:40:22;;;;;;;14.38;5.15;;;;;;;19.44;49.97;98531.78;5048670;28;20078;-49
2022/04/10 08:42:48;;;;;;;12.65;5.07;;;;;;;19.49;50.10;98527.13;5048764;28;20028;-51
2022/04/10 08:45:14;;;;;;;12.20;5.38;;;;;;;19.75;49.96;98523.28;5048720;28;20043;-49
2022/04/10 08:47:40;;;;;;;16.23;5.88;;;;;;;19.01;53.49;98507.56;5049204;28;20021;-47
2022/04/10 08:50:06;;;;;;;16.92;6.43;;;;;;;19.67;55.83;98493.13;5051708;28;20025;-45
2022/04/10 08:52:33;;;;;;;17.20;5.53;;;;;;;20.37;51.95;98493.34;5053173;28;20397;-45
2022/04/10 08:54:58;;;;;;;14.18;5.80;;;;;;;19.45;54.87;98506.41;5053049;28;20086;-46
2022/04/10 08:57:24;;;;;;;15.80;6.43;;;;;;;18.54;58.73;98501.84;5053179;28;20029;-46
2022/04/10 08:59:49;;;;;;;12.95;6.03;;;;;;;19.30;55.97;98513.63;5053195;28;20040;-48
2022/04/10 09:02:15;;;;;;;14.38;6.65;;;;;;;19.76;54.86;98505.97;5052650;28;20032;-47
2022/04/10 09:04:41;;;;;;;15.95;6.78;;;;;;;18.66;56.45;98486.09;5052883;28;20409;-50
2022/04/10 09:07:11;;;;;;;15.95;6.38;;;;;;;18.29;59.48;98490.25;5052483;28;20040;-47
2022/04/10 09:09:41;;;;;;;15.93;6.18;;;;;;;18.93;57.83;98500.91;5052633;28;20025;-46
2022/04/10 09:12:08;;;;;;;14.48;6.85;;;;;;;18.95;56.87;98474.47;5052616;28;20108;-51
2022/04/10 09:14:37;;;;;;;15.13;7.40;;;;;;;18.29;56.52;98467.91;5051968;28;20044;-46
2022/04/10 09:17:17;;;;;;;13.87;7.60;;;;;;;18.64;56.40;98479.38;5052608;28;20217;-48
2022/04/10 09:19:51;;;;;;;12.85;7.40;;;;;;;19.12;55.58;98476.66;5052696;28;20029;-48
2022/04/10 09:22:25;;;;;;;14.82;7.85;;;;;;;18.58;54.57;98459.78;5052500;28;20062;-46
2022/04/10 09:25:13;;;;;;;12.95;6.82;;;;;;;17.87;56.04;98454.03;5052544;28;20028;-48
2022/04/10 09:27:40;;;;;;;14.07;6.60;;;;;;;18.70;54.13;98473.66;5052348;28;20384;-47
2022/04/10 09:30:09;;;;;;;10.98;6.13;;;;;;;18.76;52.83;98469.81;5051813;28;20029;-48
2022/04/10 09:32:41;;;;;;;11.43;6.18;;;;;;;18.02;55.81;98463.06;5051727;28;20399;-50
2022/04/10 09:35:07;;;;;;;14.23;6.25;;;;;;;18.27;53.22;98465.50;5045258;28;20032;-49
2022/04/10 09:37:52;;;;;;;10.68;6.20;;;;;;;18.94;52.34;98476.38;5048519;28;20070;-48
2022/04/10 09:40:30;;;;;;;10.23;6.22;;;;;;;18.75;52.30;98462.00;5039372;28;20096;-49
2022/04/10 09:42:58;;;;;;;11.50;5.88;;;;;;;18.71;52.64;98459.06;5033279;28;20121;-47
2022/04/10 09:45:38;;;;;;;9.43;5.03;;;;;;;19.78;48.70;98452.50;5050594;28;20032;-49
2022/04/10 09:48:27;;;;;;;12.15;5.25;;;;;;;19.52;48.93;98452.91;5049792;28;20040;-48
2022/04/10 09:50:56;;;;;;;13.88;5.38;;;;;;;19.22;51.21;98464.94;5049282;28;20180;-50
2022/04/10 09:53:22;;;;;;;14.55;5.38;;;;;;;19.80;49.44;98455.72;5049302;28;20025;-50
2022/04/10 09:55:56;;;;;;;10.65;4.82;;;;;;;20.73;46.19;98454.84;5048536;28;20377;-49
2022/04/10 09:58:22;;;;;;;10.38;5.10;;;;;;;20.01;47.49;98446.19;5049177;28;20029;-50
2022/04/10 10:00:51;;;;;;;9.13;5.07;;;;;;;20.08;47.88;98448.50;5048219;28;20079;-48
2022/04/10 10:03:17;;;;;;;9.48;5.05;;;;;;;21.14;46.08;98454.00;5049165;28;20029;-47
2022/04/10 10:05:43;;;;;;;17.50;7.00;;;;;;;20.80;46.10;98450.66;5049568;28;20078;-47
2022/04/10 10:08:09;;;;;;;15.27;8.27;;;;;;;20.53;47.69;98440.63;5049981;28;20098;-49
2022/04/10 10:10:37;;;;;;;44.53;29.70;;;;;;;20.82;47.68;98439.53;5050951;28;20028;-47
2022/04/10 10:13:07;;;;;;;9.73;5.67;;;;;;;21.02;46.21;98446.44;5051849;28;20068;-47
2022/04/10 10:15:35;;;;;;;12.00;5.40;;;;;;;20.80;46.19;98441.75;5051040;28;20336;-47
2022/04/10 10:18:08;;;;;;;11.75;5.45;;;;;;;20.54;47.82;98423.31;5051080;28;20453;-47
2022/04/10 10:20:34;;;;;;;10.20;5.10;;;;;;;21.66;45.14;98417.34;5051422;28;20558;-48
2022/04/10 10:23:02;;;;;;;8.55;5.32;;;;;;;22.75;42.98;98420.69;5051084;28;20025;-48
2022/04/10 10:25:35;;;;;;;20.55;12.65;;;;;;;22.59;42.67;98414.94;5051243;28;20495;-51
2022/04/10 10:28:11;;;;;;;12.07;6.22;;;;;;;22.04;44.08;98416.13;5051019;28;20028;-50
2022/04/10 10:31:05;;;;;;;11.15;6.00;;;;;;;22.17;43.51;98407.09;5051328;28;20433;-49
2022/04/10 10:33:31;;;;;;;11.25;5.78;;;;;;;22.85;40.86;98406.84;5051010;28;20021;-49
2022/04/10 10:35:59;;;;;;;12.18;5.85;;;;;;;21.16;43.46;98406.59;5051121;28;20017;-52
2022/04/10 10:38:32;;;;;;;10.45;6.07;;;;;;;21.78;42.75;98395.13;5050775;28;20044;-50
2022/04/10 10:41:12;;;;;;;11.15;6.15;;;;;;;22.16;42.24;98393.88;5050932;28;20104;-48
2022/04/10 10:43:38;;;;;;;10.73;5.78;;;;;;;22.22;42.29;98400.75;5050810;28;20049;-47
2022/04/10 10:46:24;;;;;;;10.52;5.53;;;;;;;22.03;43.46;98393.66;5050628;28;20068;-49
2022/04/10 10:49:10;;;;;;;15.13;6.30;;;;;;;23.16;41.31;98398.59;5046363;28;20060;-49
2022/04/10 10:51:35;;;;;;;10.00;5.93;;;;;;;23.45;40.50;98396.34;5050764;28;20120;-48
2022/04/10 10:54:03;;;;;;;10.85;6.18;;;;;;;22.36;41.10;98389.84;5050719;28;20052;-51
2022/04/10 10:56:37;;;;;;;10.52;5.75;;;;;;;22.98;40.89;98395.06;5050635;28;20025;-50
2022/04/10 10:59:30;;;;;;;10.80;5.30;;;;;;;22.97;40.73;98382.59;5050476;28;20024;-50
2022/04/10 11:02:12;;;;;;;11.15;6.00;;;;;;;22.15;41.29;98374.13;5051003;28;20465;-52
2022/04/10 11:04:50;;;;;;;12.65;6.20;;;;;;;22.83;41.48;98373.84;5050576;28;20029;-53
2022/04/10 11:07:19;;;;;;;15.93;7.50;;;;;;;23.52;39.95;98375.75;5050515;28;20049;-49
2022/04/10 11:10:00;;;;;;;8.57;5.40;;;;;;;23.23;39.37;98369.06;5050084;28;20687;-50
2022/04/10 11:12:34;;;;;;;8.73;5.13;;;;;;;22.93;39.45;98370.81;5050062;28;20415;-48
2022/04/10 11:15:23;;;;;;;7.75;4.68;;;;;;;24.33;37.38;98360.47;5049862;28;20049;-51
2022/04/10 11:17:51;;;;;;;8.00;4.57;;;;;;;23.87;36.32;98359.38;5047041;28;20116;-50
2022/04/10 11:20:20;;;;;;;7.63;4.38;;;;;;;22.14;39.47;98364.41;5049666;28;20100;-50
2022/04/10 11:22:48;;;;;;;;;;;;;;;23.54;37.58;98364.56;5050896;28;20031;-48
2022/04/10 11:25:18;;;;;;;12.50;3.90;;;;;;;23.94;36.07;98356.97;5049919;28;20397;-51
2022/04/10 11:27:59;;;;;;;7.20;3.78;;;;;;;22.68;38.39;98360.75;5049997;28;20090;-50
2022/04/10 11:30:28;;;;;;;7.20;3.72;;;;;;;22.72;38.80;98357.06;5050743;28;20049;-50
2022/04/10 11:33:02;;;;;;;5.63;3.83;;;;;;;23.39;37.47;98355.81;5050090;28;20075;-48